createdAt,value
2023-03-04T00:01:03.441Z,99434.58
2023-03-04T00:02:13.579Z,99433.66
2023-03-04T00:03:22.880Z,99426.84
2023-03-04T00:04:31.580Z,99429.34
2023-03-04T00:05:41.039Z,99422.90
2023-03-04T00:06:50.021Z,99426.43
2023-03-04T00:07:58.966Z,99424.40
2023-03-04T00:09:09.004Z,99426.43
2023-03-04T00:10:18.309Z,99422.39
2023-03-04T00:11:26.867Z,99419.81
2023-03-04T00:12:36.389Z,99413.89
2023-03-04T00:13:45.299Z,99421.77
2023-03-04T00:14:53.989Z,99420.45
2023-03-04T00:16:03.881Z,99410.66
2023-03-04T00:17:12.412Z,99416.89
2023-03-04T00:18:21.371Z,99413.58
2023-03-04T00:19:32.027Z,99413.50
2023-03-04T00:20:43.829Z,99409.42
2023-03-04T00:21:53.241Z,99409.27
2023-03-04T00:23:03.109Z,99409.86
2023-03-04T00:25:27.208Z,99397.41
2023-03-04T00:26:36.075Z,99392.16
2023-03-04T00:27:45.586Z,99399.45
2023-03-04T00:28:54.672Z,99385.20
2023-03-04T00:30:08.163Z,99384.28
2023-03-04T00:31:18.596Z,99380.64
2023-03-04T00:32:28.073Z,99381.64
2023-03-04T00:33:38.152Z,99385.43
2023-03-04T00:34:47.691Z,99386.50
2023-03-04T00:35:59.042Z,99388.16
2023-03-04T00:37:08.775Z,99384.70
2023-03-04T00:38:18.418Z,99379.47
2023-03-04T00:40:44.223Z,99382.93
2023-03-04T00:41:53.210Z,99388.48
2023-03-04T00:43:02.449Z,99385.13
2023-03-04T00:44:12.214Z,99391.36
2023-03-04T00:45:21.111Z,99382.34
2023-03-04T00:47:45.000Z,99378.98
2023-03-04T00:48:54.412Z,99387.27
2023-03-04T00:50:04.158Z,99384.70
2023-03-04T00:51:13.244Z,99382.93
2023-03-04T00:52:21.862Z,99381.90
2023-03-04T00:53:31.382Z,99380.06
2023-03-04T00:54:39.899Z,99384.51
2023-03-04T00:55:48.641Z,99381.86
2023-03-04T00:56:57.636Z,99387.27
2023-03-04T00:58:07.054Z,99382.63
2023-03-04T00:59:15.563Z,99384.28
2023-03-04T01:00:26.860Z,99379.91
2023-03-04T01:01:35.909Z,99384.28
2023-03-04T01:02:44.841Z,99382.48
2023-03-04T01:03:54.008Z,99385.79
2023-03-04T01:05:03.858Z,99381.41
2023-03-04T01:06:13.158Z,99381.41
2023-03-04T01:07:22.650Z,99369.16
2023-03-04T01:08:32.109Z,99380.72
2023-03-04T01:09:41.541Z,99376.27
2023-03-04T01:10:50.729Z,99375.34
2023-03-04T01:12:00.133Z,99379.64
2023-03-04T01:13:09.751Z,99376.04
2023-03-04T01:14:19.669Z,99376.99
2023-03-04T01:15:28.598Z,99371.70
2023-03-04T01:16:37.396Z,99362.02
2023-03-04T01:17:46.482Z,99370.96
2023-03-04T01:18:59.124Z,99368.46
2023-03-04T01:20:10.542Z,99362.94
2023-03-04T01:22:35.092Z,99353.69
2023-03-04T01:23:46.123Z,99358.64
2023-03-04T01:24:54.934Z,99367.58
2023-03-04T01:26:03.722Z,99362.50
2023-03-04T01:27:14.589Z,99354.48
2023-03-04T01:28:22.904Z,99358.02
2023-03-04T01:29:32.678Z,99355.70
2023-03-04T01:30:41.970Z,99351.55
2023-03-04T01:31:51.648Z,99353.13
2023-03-04T01:33:02.192Z,99345.87
2023-03-04T01:34:10.960Z,99345.18
2023-03-04T01:35:19.979Z,99344.38
2023-03-04T01:36:29.293Z,99348.97
2023-03-04T01:37:39.389Z,99339.22
2023-03-04T01:40:05.380Z,99340.39
2023-03-04T01:41:17.653Z,99342.67
2023-03-04T01:42:30.910Z,99340.10
2023-03-04T01:43:41.082Z,99337.23
2023-03-04T01:46:09.136Z,99325.27
2023-03-04T01:47:19.873Z,99334.66
2023-03-04T01:48:38.523Z,99330.28
2023-03-04T01:49:51.873Z,99333.92
2023-03-04T01:51:04.292Z,99324.91
2023-03-04T01:52:15.877Z,99326.70
2023-03-04T01:53:27.645Z,99333.70
2023-03-04T01:54:36.183Z,99330.28
2023-03-04T01:55:46.349Z,99332.01
2023-03-04T01:56:57.560Z,99326.70
2023-03-04T01:58:10.411Z,99328.41
2023-03-04T01:59:25.707Z,99326.78
2023-03-04T02:00:36.326Z,99328.63
2023-03-04T02:01:48.717Z,99319.76
2023-03-04T02:03:03.236Z,99321.56
2023-03-04T02:04:13.055Z,99323.11
2023-03-04T02:05:23.267Z,99319.76
2023-03-04T02:06:32.320Z,99318.03
2023-03-04T02:07:41.579Z,99314.46
2023-03-04T02:08:52.370Z,99318.77
2023-03-04T02:10:01.439Z,99310.89
2023-03-04T02:11:11.187Z,99313.39
2023-03-04T02:13:42.248Z,99303.14
2023-03-04T02:14:51.879Z,99303.64
2023-03-04T02:16:00.352Z,99308.09
2023-03-04T02:17:13.445Z,99304.45
2023-03-04T02:18:24.865Z,99314.23
2023-03-04T02:19:43.042Z,99303.28
2023-03-04T02:21:07.006Z,99310.31
2023-03-04T02:22:26.009Z,99310.01
2023-03-04T02:23:47.820Z,99308.17
2023-03-04T02:25:03.841Z,99307.84
2023-03-04T02:26:27.873Z,99299.91
2023-03-04T02:27:37.713Z,99303.28
2023-03-04T02:28:50.421Z,99307.81
2023-03-04T02:29:59.638Z,99295.67
2023-03-04T02:31:13.013Z,99298.20
2023-03-04T02:32:22.300Z,99298.28
2023-03-04T02:33:33.100Z,99294.61
2023-03-04T02:34:46.264Z,99297.41
2023-03-04T02:35:56.453Z,99295.48
2023-03-04T02:37:07.310Z,99294.56
2023-03-04T02:38:16.675Z,99290.19
2023-03-04T02:41:02.952Z,99282.59
2023-03-04T02:42:12.464Z,99279.79
2023-03-04T02:43:21.263Z,99281.59
2023-03-04T02:44:34.107Z,99286.81
2023-03-04T02:45:47.468Z,99276.30
2023-03-04T02:46:58.015Z,99278.86
2023-03-04T02:48:08.445Z,99278.09
2023-03-04T02:49:19.731Z,99283.31
2023-03-04T02:50:32.464Z,99281.66
2023-03-04T02:51:41.665Z,99276.01
2023-03-04T02:52:51.196Z,99273.28
2023-03-04T02:54:01.341Z,99270.97
2023-03-04T02:55:10.762Z,99276.27
2023-03-04T02:56:19.720Z,99260.38
2023-03-04T02:57:30.921Z,99249.75
2023-03-04T02:58:41.736Z,99248.73
2023-03-04T02:59:51.553Z,99247.58
2023-03-04T03:01:02.516Z,99234.48
2023-03-04T03:02:11.936Z,99238.94
2023-03-04T03:03:21.268Z,99245.08
2023-03-04T03:04:31.309Z,99243.66
2023-03-04T03:05:40.544Z,99239.77
2023-03-04T03:06:49.671Z,99248.36
2023-03-04T03:07:58.974Z,99254.46
2023-03-04T03:09:09.430Z,99244.80
2023-03-04T03:11:35.527Z,99234.56
2023-03-04T03:12:46.540Z,99244.80
2023-03-04T03:13:56.673Z,99243.98
2023-03-04T03:16:22.425Z,99246.88
2023-03-04T03:17:32.901Z,99245.86
2023-03-04T03:18:42.579Z,99250.23
2023-03-04T03:19:51.253Z,99251.93
2023-03-04T03:20:59.881Z,99249.24
2023-03-04T03:23:24.432Z,99236.06
2023-03-04T03:24:33.755Z,99246.23
2023-03-04T03:25:42.196Z,99234.20
2023-03-04T03:26:51.392Z,99232.41
2023-03-04T03:28:01.486Z,99237.51
2023-03-04T03:29:11.204Z,99229.34
2023-03-04T03:31:37.125Z,99223.91
2023-03-04T03:32:45.999Z,99235.30
2023-03-04T03:33:55.569Z,99235.14
2023-03-04T03:35:06.137Z,99230.70
2023-03-04T03:36:17.019Z,99232.72
2023-03-04T03:37:27.186Z,99230.00
2023-03-04T03:38:36.862Z,99223.63
2023-03-04T03:39:45.884Z,99230.12
2023-03-04T03:42:09.758Z,99212.88
2023-03-04T03:43:19.260Z,99226.47
2023-03-04T03:44:29.006Z,99221.25
2023-03-04T03:45:38.625Z,99213.23
2023-03-04T03:46:47.959Z,99214.95
2023-03-04T03:47:56.487Z,99220.17
2023-03-04T03:49:06.188Z,99230.70
2023-03-04T03:50:17.569Z,99221.83
2023-03-04T03:51:26.703Z,99205.87
2023-03-04T03:52:35.803Z,99216.19
2023-03-04T03:53:44.330Z,99222.13
2023-03-04T03:54:53.744Z,99214.38
2023-03-04T03:56:03.300Z,99215.19
2023-03-04T03:57:12.901Z,99214.45
2023-03-04T03:58:22.825Z,99216.41
2023-03-04T03:59:31.362Z,99210.23
2023-03-04T04:00:40.985Z,99219.05
2023-03-04T04:01:49.437Z,99204.24
2023-03-04T04:03:01.465Z,99206.66
2023-03-04T04:04:10.454Z,99195.00
2023-03-04T04:05:19.813Z,99206.59
2023-03-04T04:06:29.372Z,99198.50
2023-03-04T04:07:40.230Z,99193.50
2023-03-04T04:08:48.546Z,99196.08
2023-03-04T04:09:58.469Z,99193.27
2023-03-04T04:11:10.350Z,99194.92
2023-03-04T04:12:20.304Z,99195.50
2023-03-04T04:13:29.368Z,99193.05
2023-03-04T04:14:39.240Z,99188.48
2023-03-04T04:15:47.771Z,99196.84
2023-03-04T04:16:56.726Z,99190.48
2023-03-04T04:18:07.639Z,99183.27
2023-03-04T04:20:34.348Z,99175.02
2023-03-04T04:21:43.868Z,99184.19
2023-03-04T04:22:53.075Z,99182.27
2023-03-04T04:24:02.680Z,99182.03
2023-03-04T04:25:12.256Z,99185.04
2023-03-04T04:26:20.992Z,99180.66
2023-03-04T04:27:29.608Z,99178.90
2023-03-04T04:28:38.658Z,99175.19
2023-03-04T04:29:47.091Z,99169.74
2023-03-04T04:32:13.172Z,99161.02
2023-03-04T04:33:25.892Z,99167.11
2023-03-04T04:34:35.228Z,99174.67
2023-03-04T04:35:44.308Z,99168.31
2023-03-04T04:36:54.514Z,99160.94
2023-03-04T04:38:05.245Z,99155.71
2023-03-04T04:40:28.967Z,99151.13
2023-03-04T04:41:40.678Z,99151.48
2023-03-04T04:42:49.433Z,99150.69
2023-03-04T04:43:59.389Z,99145.53
2023-03-04T04:45:10.831Z,99145.69
2023-03-04T04:46:21.676Z,99151.13
2023-03-04T04:48:45.522Z,99133.59
2023-03-04T04:49:56.230Z,99137.75
2023-03-04T04:52:20.079Z,99137.41
2023-03-04T04:53:29.087Z,99143.70
2023-03-04T04:54:38.666Z,99133.77
2023-03-04T04:55:47.642Z,99132.20
2023-03-04T04:56:57.609Z,99142.20
2023-03-04T04:58:07.355Z,99137.41
2023-03-04T04:59:16.366Z,99132.05
2023-03-04T05:00:27.196Z,99129.05
2023-03-04T05:01:37.037Z,99118.38
2023-03-04T05:02:46.582Z,99123.21
2023-03-04T05:03:57.313Z,99119.56
2023-03-04T05:05:08.293Z,99118.38
2023-03-04T05:06:18.451Z,99121.88
2023-03-04T05:07:27.266Z,99119.31
2023-03-04T05:08:36.248Z,99124.52
2023-03-04T05:09:45.490Z,99109.06
2023-03-04T05:10:55.663Z,99128.58
2023-03-04T05:12:05.489Z,99129.80
2023-03-04T05:14:29.978Z,99130.52
2023-03-04T05:15:39.816Z,99123.01
2023-03-04T05:18:08.454Z,99098.38
2023-03-04T05:19:19.631Z,99110.77
2023-03-04T05:20:28.341Z,99103.77
2023-03-04T05:21:36.980Z,99103.92
2023-03-04T05:22:46.512Z,99098.89
2023-03-04T05:23:54.999Z,99097.81
2023-03-04T05:25:04.521Z,99099.71
2023-03-04T05:26:16.026Z,99091.92
2023-03-04T05:27:25.162Z,99094.27
2023-03-04T05:28:35.492Z,99102.62
2023-03-04T05:31:02.391Z,99092.83
2023-03-04T05:32:10.869Z,99092.75
2023-03-04T05:33:21.174Z,99084.38
2023-03-04T05:34:30.696Z,99084.98
2023-03-04T05:35:41.354Z,99088.34
2023-03-04T05:36:49.762Z,99081.84
2023-03-04T05:37:59.937Z,99077.51
2023-03-04T05:40:25.604Z,99077.99
2023-03-04T05:41:35.276Z,99076.98
2023-03-04T05:42:44.910Z,99063.75
2023-03-04T05:43:54.101Z,99062.42
2023-03-04T05:45:03.749Z,99063.98
2023-03-04T05:46:17.261Z,99064.67
2023-03-04T05:47:26.288Z,99069.76
2023-03-04T05:48:35.817Z,99065.78
2023-03-04T05:49:45.782Z,99058.46
2023-03-04T05:50:56.657Z,99066.78
2023-03-04T05:52:06.334Z,99065.84
2023-03-04T05:53:15.902Z,99063.80
2023-03-04T05:54:25.439Z,99076.19
2023-03-04T05:55:34.076Z,99069.36
2023-03-04T05:56:43.537Z,99070.69
2023-03-04T05:57:52.081Z,99069.59
2023-03-04T05:59:03.617Z,99063.83
2023-03-04T06:00:14.692Z,99058.61
2023-03-04T06:01:23.341Z,99061.65
2023-03-04T06:02:31.913Z,99058.67
2023-03-04T06:03:42.508Z,99056.02
2023-03-04T06:04:51.071Z,99057.52
2023-03-04T06:05:59.759Z,99052.98
2023-03-04T06:07:08.472Z,99048.95
2023-03-04T06:08:18.254Z,99052.53
2023-03-04T06:09:27.984Z,99051.98
2023-03-04T06:10:36.954Z,99048.08
2023-03-04T06:11:45.506Z,99053.07
2023-03-04T06:12:54.116Z,99045.22
2023-03-04T06:14:03.543Z,99042.65
2023-03-04T06:15:13.341Z,99039.75
2023-03-04T06:16:23.469Z,99040.03
2023-03-04T06:17:32.601Z,99037.69
2023-03-04T06:18:41.140Z,99041.81
2023-03-04T06:19:50.903Z,99031.29
2023-03-04T06:21:02.523Z,99035.66
2023-03-04T06:22:11.284Z,99039.02
2023-03-04T06:23:19.713Z,99044.16
2023-03-04T06:24:28.147Z,99030.19
2023-03-04T06:25:36.704Z,99026.25
2023-03-04T06:26:45.770Z,99024.86
2023-03-04T06:27:55.322Z,99028.94
2023-03-04T06:29:07.801Z,99015.59
2023-03-04T06:31:33.081Z,99027.50
2023-03-04T06:32:45.006Z,99022.42
2023-03-04T06:33:54.435Z,99022.80
2023-03-04T06:35:05.942Z,99024.44
2023-03-04T06:36:15.238Z,99019.75
2023-03-04T06:37:23.881Z,99020.41
2023-03-04T06:38:33.472Z,99029.86
2023-03-04T06:39:42.395Z,99028.30
2023-03-04T06:40:51.555Z,99021.87
2023-03-04T06:42:00.183Z,99025.85
2023-03-04T06:43:08.647Z,99029.01
2023-03-04T06:44:18.222Z,99030.42
2023-03-04T06:45:28.295Z,99021.86
2023-03-04T06:47:53.086Z,99024.20
2023-03-04T06:50:18.426Z,99005.28
2023-03-04T06:51:28.625Z,99009.80
2023-03-04T06:52:41.179Z,99014.92
2023-03-04T06:53:49.810Z,98996.53
2023-03-04T06:56:16.716Z,98995.60
2023-03-04T06:57:25.470Z,99002.94
2023-03-04T06:58:35.043Z,99002.54
2023-03-04T06:59:43.938Z,98992.91
2023-03-04T07:00:54.432Z,98995.33
2023-03-04T07:02:03.135Z,98995.14
2023-03-04T07:04:28.035Z,98992.95
2023-03-04T07:05:37.034Z,98989.86
2023-03-04T07:08:00.885Z,98981.33
2023-03-04T07:09:09.941Z,98977.57
2023-03-04T07:11:36.156Z,98975.00
2023-03-04T07:12:44.750Z,98975.75
2023-03-04T07:13:53.732Z,98976.55
2023-03-04T07:16:22.314Z,98955.04
2023-03-04T07:17:31.980Z,98976.80
2023-03-04T07:19:55.489Z,98960.69
2023-03-04T07:21:06.469Z,98956.53
2023-03-04T07:22:17.246Z,98966.86
2023-03-04T07:23:26.719Z,98956.98
2023-03-04T07:24:36.285Z,98967.62
2023-03-04T07:27:00.344Z,98937.88
2023-03-04T07:28:08.957Z,98957.02
2023-03-04T07:29:19.302Z,98951.83
2023-03-04T07:30:28.556Z,98956.59
2023-03-04T07:31:38.199Z,98951.02
2023-03-04T07:34:05.058Z,98932.23
2023-03-04T07:35:14.419Z,98928.88
2023-03-04T07:36:23.509Z,98938.13
2023-03-04T07:37:31.959Z,98931.80
2023-03-04T07:38:45.934Z,98934.37
2023-03-04T07:41:09.980Z,98923.58
2023-03-04T07:42:18.591Z,98932.47
2023-03-04T07:43:29.134Z,98918.42
2023-03-04T07:44:37.802Z,98921.07
2023-03-04T07:45:46.289Z,98905.56
2023-03-04T07:46:55.181Z,98916.58
2023-03-04T07:49:20.610Z,98922.80
2023-03-04T07:50:29.792Z,98922.00
2023-03-04T07:51:38.864Z,98911.62
2023-03-04T07:52:50.545Z,98914.50
2023-03-04T07:55:16.379Z,98911.69
2023-03-04T07:57:46.283Z,98893.91
2023-03-04T07:58:56.616Z,98903.87
2023-03-04T08:00:07.218Z,98891.38
2023-03-04T08:02:40.664Z,98898.13
2023-03-04T08:03:51.813Z,98890.54
2023-03-04T08:05:00.348Z,98907.44
2023-03-04T08:07:27.798Z,98903.11
2023-03-04T08:08:38.470Z,98910.87
2023-03-04T08:12:25.234Z,98912.27
2023-03-04T08:13:35.180Z,98917.28
2023-03-04T08:16:22.053Z,98897.00
2023-03-04T08:17:30.919Z,98893.76
2023-03-04T08:18:41.154Z,98891.09
2023-03-04T08:19:50.812Z,98894.89
2023-03-04T08:20:59.960Z,98899.72
2023-03-04T08:22:08.510Z,98903.55
2023-03-04T08:24:32.815Z,98894.14
2023-03-04T08:25:42.864Z,98904.39
2023-03-04T08:26:51.490Z,98892.33
2023-03-04T08:28:00.044Z,98894.34
2023-03-04T08:29:13.261Z,98890.06
2023-03-04T08:31:39.744Z,98889.58
2023-03-04T08:32:48.455Z,98888.83
2023-03-04T08:33:57.183Z,98891.68
2023-03-04T08:35:07.976Z,98882.83
2023-03-04T08:36:17.658Z,98888.73
2023-03-04T08:37:26.579Z,98879.63
2023-03-04T08:39:50.103Z,98863.36
2023-03-04T08:41:00.629Z,98883.11
2023-03-04T08:43:26.375Z,98872.95
2023-03-04T08:45:53.850Z,98874.31
2023-03-04T08:48:23.947Z,98867.65
2023-03-04T08:49:32.372Z,98871.73
2023-03-04T08:50:43.231Z,98876.30
2023-03-04T08:51:52.106Z,98854.17
2023-03-04T08:53:00.819Z,98870.02
2023-03-04T08:54:09.686Z,98875.16
2023-03-04T08:55:20.097Z,98868.78
2023-03-04T08:56:29.391Z,98878.56
2023-03-04T08:57:38.809Z,98872.11
2023-03-04T08:58:47.551Z,98869.94
2023-03-04T08:59:57.193Z,98876.97
2023-03-04T09:01:10.208Z,98875.25
2023-03-04T09:02:19.872Z,98877.04
2023-03-04T09:03:32.078Z,98876.67
2023-03-04T09:05:56.982Z,98861.95
2023-03-04T09:07:06.957Z,98875.44
2023-03-04T09:08:17.033Z,98872.20
2023-03-04T09:09:26.450Z,98863.20
2023-03-04T09:10:36.228Z,98870.98
2023-03-04T09:11:45.160Z,98872.20
2023-03-04T09:14:08.745Z,98866.78
2023-03-04T09:15:17.604Z,98870.04
2023-03-04T09:16:26.694Z,98871.66
2023-03-04T09:17:36.312Z,98869.64
2023-03-04T09:19:59.695Z,98863.86
2023-03-04T09:21:11.684Z,98864.03
2023-03-04T09:23:36.383Z,98856.37
2023-03-04T09:24:45.958Z,98859.77
2023-03-04T09:25:54.524Z,98864.70
2023-03-04T09:28:19.838Z,98852.84
2023-03-04T09:29:28.629Z,98831.86
2023-03-04T09:31:53.261Z,98844.13
2023-03-04T09:33:01.976Z,98865.64
2023-03-04T09:34:11.760Z,98839.31
2023-03-04T09:36:35.996Z,98846.48
2023-03-04T09:37:46.079Z,98857.31
2023-03-04T09:38:55.072Z,98861.10
2023-03-04T09:40:05.751Z,98857.50
2023-03-04T09:42:49.857Z,98853.13
2023-03-04T09:44:00.964Z,98862.14
2023-03-04T09:45:13.460Z,98852.75
2023-03-04T09:46:36.443Z,98849.70
2023-03-04T09:47:48.002Z,98840.88
2023-03-04T09:48:58.609Z,98845.36
2023-03-04T09:50:10.427Z,98830.05
2023-03-04T09:51:35.520Z,98837.38
2023-03-04T09:53:04.509Z,98836.51
2023-03-04T09:55:48.034Z,98832.30
2023-03-04T09:58:34.848Z,98832.00
2023-03-04T10:01:28.538Z,98826.09
2023-03-04T10:02:54.780Z,98835.63
2023-03-04T10:05:26.347Z,98806.58
2023-03-04T10:06:37.982Z,98819.27
2023-03-04T10:09:17.839Z,98826.86
2023-03-04T10:12:07.506Z,98826.50
2023-03-04T10:13:22.164Z,98811.34
2023-03-04T10:15:53.150Z,98822.87
2023-03-04T10:18:42.971Z,98811.19
2023-03-04T10:20:07.833Z,98820.56
2023-03-04T10:21:38.804Z,98804.14
2023-03-04T10:22:50.689Z,98814.20
2023-03-04T10:24:18.228Z,98815.34
2023-03-04T10:26:49.657Z,98814.00
2023-03-04T10:28:04.839Z,98806.29
2023-03-04T10:29:16.488Z,98813.22
2023-03-04T10:30:44.694Z,98804.50
2023-03-04T10:33:19.037Z,98808.21
2023-03-04T10:34:28.606Z,98809.45
2023-03-04T10:37:03.730Z,98804.00
2023-03-04T10:38:13.582Z,98818.74
2023-03-04T10:40:47.521Z,98801.28
2023-03-04T10:42:15.501Z,98803.57
2023-03-04T10:43:25.585Z,98807.54
2023-03-04T10:44:38.392Z,98812.12
2023-03-04T10:47:08.000Z,98795.13
2023-03-04T10:51:22.645Z,98791.13
2023-03-04T10:54:02.370Z,98777.66
2023-03-04T10:55:20.432Z,98788.50
2023-03-04T10:58:07.952Z,98797.61
2023-03-04T10:59:46.474Z,98804.37
2023-03-04T11:03:50.420Z,98780.18
2023-03-04T11:06:39.819Z,98753.22
2023-03-04T11:10:40.615Z,98749.58
2023-03-04T11:11:52.872Z,98739.29
2023-03-04T11:13:11.453Z,98756.91
2023-03-04T11:16:00.441Z,98733.73
2023-03-04T11:17:21.688Z,98731.81
2023-03-04T11:18:40.416Z,98718.61
2023-03-04T11:21:19.673Z,98710.12
2023-03-04T11:22:30.488Z,98726.28
2023-03-04T11:23:46.704Z,98738.95
2023-03-04T11:26:23.078Z,98726.18
2023-03-04T11:29:15.715Z,98717.47
2023-03-04T11:30:28.896Z,98709.59
2023-03-04T11:31:50.447Z,98736.17
2023-03-04T11:33:13.514Z,98730.20
2023-03-04T11:34:32.080Z,98714.91
2023-03-04T11:37:37.798Z,98708.38
2023-03-04T11:40:30.366Z,98720.83
2023-03-04T11:43:05.452Z,98708.48
2023-03-04T11:44:15.291Z,98731.70
2023-03-04T11:46:54.256Z,98711.31
2023-03-04T11:48:40.146Z,98718.72
2023-03-04T11:51:35.601Z,98707.78
2023-03-04T11:52:57.135Z,98723.67
2023-03-04T11:54:33.019Z,98718.05
2023-03-04T11:57:12.951Z,98724.88
2023-03-04T11:58:46.730Z,98723.84
2023-03-04T12:01:48.802Z,98714.91
2023-03-04T12:03:19.863Z,98715.18
2023-03-04T12:04:36.937Z,98715.55
2023-03-04T12:05:53.397Z,98706.64
2023-03-04T12:08:48.522Z,98715.08
2023-03-04T12:10:12.801Z,98710.61
2023-03-04T12:13:14.361Z,98709.34
2023-03-04T12:16:00.540Z,98703.41
2023-03-04T12:17:36.230Z,98709.72
2023-03-04T12:19:09.838Z,98698.15
2023-03-04T12:22:45.249Z,98704.56
2023-03-04T12:25:42.202Z,98695.81
2023-03-04T12:28:40.800Z,98702.00
2023-03-04T12:30:01.616Z,98718.88
2023-03-04T12:31:19.742Z,98702.17
2023-03-04T12:32:41.861Z,98700.75
2023-03-04T12:33:57.595Z,98700.45
2023-03-04T12:35:22.218Z,98702.80
2023-03-04T12:39:54.689Z,98711.31
2023-03-04T12:43:02.556Z,98710.69
2023-03-04T12:44:19.305Z,98709.80
2023-03-04T12:46:02.103Z,98724.98
2023-03-04T12:47:30.512Z,98711.11
2023-03-04T12:50:14.067Z,98695.78
2023-03-04T12:52:51.853Z,98703.59
2023-03-04T12:55:50.380Z,98698.80
2023-03-04T12:57:01.056Z,98710.89
2023-03-04T12:59:41.976Z,98709.39
2023-03-04T13:01:12.040Z,98715.30
2023-03-04T13:04:01.441Z,98705.13
2023-03-04T13:05:30.902Z,98705.58
2023-03-04T13:09:43.454Z,98710.06
2023-03-04T13:10:53.644Z,98699.09
2023-03-04T13:13:40.596Z,98698.02
2023-03-04T13:15:11.438Z,98715.18
2023-03-04T13:16:43.464Z,98702.80
2023-03-04T13:18:05.548Z,98709.34
2023-03-04T13:21:29.509Z,98702.56
2023-03-04T13:22:43.422Z,98705.08
2023-03-04T13:23:53.771Z,98703.36
2023-03-04T13:25:23.408Z,98712.58
2023-03-04T13:26:34.358Z,98710.49
2023-03-04T13:27:50.420Z,98726.54
2023-03-04T13:29:17.835Z,98708.78
2023-03-04T13:30:38.754Z,98704.23
2023-03-04T13:32:11.409Z,98708.40
2023-03-04T13:33:27.168Z,98699.24
2023-03-04T13:34:54.025Z,98695.44
2023-03-04T13:36:09.407Z,98700.11
2023-03-04T13:37:33.294Z,98702.77
2023-03-04T13:40:27.927Z,98702.36
2023-03-04T13:41:53.924Z,98697.77
2023-03-04T13:44:50.629Z,98690.38
2023-03-04T13:47:25.214Z,98686.85
2023-03-04T13:48:36.677Z,98691.06
2023-03-04T13:49:45.986Z,98699.98
2023-03-04T13:50:55.448Z,98686.32
2023-03-04T13:52:24.184Z,98694.66
2023-03-04T13:55:15.838Z,98690.07
2023-03-04T13:56:36.952Z,98676.17
2023-03-04T13:57:51.615Z,98680.64
2023-03-04T13:59:13.018Z,98685.95
2023-03-04T14:00:22.489Z,98667.16
2023-03-04T14:01:34.940Z,98663.83
2023-03-04T14:02:51.505Z,98657.58
2023-03-04T14:05:16.842Z,98662.94
2023-03-04T14:07:44.273Z,98665.91
2023-03-04T14:08:54.543Z,98662.25
2023-03-04T14:10:09.914Z,98672.95
2023-03-04T14:12:56.249Z,98666.95
2023-03-04T14:14:10.313Z,98663.94
2023-03-04T14:18:08.102Z,98665.59
2023-03-04T14:20:46.682Z,98676.05
2023-03-04T14:21:58.753Z,98690.48
2023-03-04T14:26:20.815Z,98686.22
2023-03-04T14:27:34.598Z,98679.13
2023-03-04T14:28:49.849Z,98690.23
2023-03-04T14:30:02.192Z,98677.05
2023-03-04T14:32:32.116Z,98673.98
2023-03-04T14:36:24.016Z,98687.93
2023-03-04T14:37:46.103Z,98691.91
2023-03-04T14:38:58.376Z,98691.84
2023-03-04T14:41:38.074Z,98685.75
2023-03-04T14:44:11.619Z,98691.84
2023-03-04T14:45:23.576Z,98697.73
2023-03-04T14:47:54.170Z,98686.02
2023-03-04T14:50:21.167Z,98690.95
2023-03-04T14:51:33.212Z,98691.22
2023-03-04T14:52:53.802Z,98698.05
2023-03-04T14:54:02.610Z,98694.34
2023-03-04T14:55:21.639Z,98682.87
2023-03-04T14:57:53.782Z,98684.27
2023-03-04T14:59:02.719Z,98677.83
2023-03-04T15:00:24.329Z,98673.03
2023-03-04T15:01:37.247Z,98674.56
2023-03-04T15:02:49.297Z,98683.58
2023-03-04T15:04:10.897Z,98679.61
2023-03-04T15:08:27.284Z,98664.14
2023-03-04T15:09:36.542Z,98681.73
2023-03-04T15:11:04.634Z,98673.66
2023-03-04T15:13:49.164Z,98661.69
2023-03-04T15:15:03.455Z,98670.33
2023-03-04T15:16:15.202Z,98664.18
2023-03-04T15:20:23.160Z,98681.73
2023-03-04T15:21:36.163Z,98668.92
2023-03-04T15:22:49.811Z,98670.44
2023-03-04T15:23:59.804Z,98673.19
2023-03-04T15:25:20.118Z,98670.13
2023-03-04T15:26:31.239Z,98659.41
2023-03-04T15:27:39.933Z,98667.37
2023-03-04T15:28:49.116Z,98667.67
2023-03-04T15:30:02.350Z,98667.48
2023-03-04T15:31:22.199Z,98670.91
2023-03-04T15:34:15.835Z,98652.78
2023-03-04T15:35:28.127Z,98670.73
2023-03-04T15:36:39.070Z,98674.50
2023-03-04T15:37:50.035Z,98668.14
2023-03-04T15:38:59.427Z,98666.33
2023-03-04T15:40:15.150Z,98670.50
2023-03-04T15:41:26.735Z,98661.59
2023-03-04T15:43:51.750Z,98659.03
2023-03-04T15:46:16.983Z,98665.18
2023-03-04T15:48:41.897Z,98658.72
2023-03-04T15:49:52.054Z,98666.43
2023-03-04T15:51:02.504Z,98674.80
2023-03-04T15:52:20.601Z,98657.56
2023-03-04T15:54:57.706Z,98634.56
2023-03-04T15:56:14.613Z,98652.58
2023-03-04T15:57:26.749Z,98638.83
2023-03-04T15:58:35.940Z,98656.14
2023-03-04T15:59:45.298Z,98654.33
2023-03-04T16:02:13.691Z,98653.73
2023-03-04T16:03:23.666Z,98650.64
2023-03-04T16:04:32.859Z,98652.32
2023-03-04T16:05:43.930Z,98646.17
2023-03-04T16:06:52.745Z,98646.64
2023-03-04T16:08:01.424Z,98640.75
2023-03-04T16:09:17.387Z,98648.82
2023-03-04T16:10:31.056Z,98642.41
2023-03-04T16:11:43.873Z,98636.22
2023-03-04T16:14:11.242Z,98615.71
2023-03-04T16:15:23.594Z,98630.81
2023-03-04T16:16:32.313Z,98652.32
2023-03-04T16:17:43.308Z,98635.45
2023-03-04T16:18:51.947Z,98638.00
2023-03-04T16:20:00.470Z,98648.08
2023-03-04T16:21:15.313Z,98649.77
2023-03-04T16:22:28.283Z,98649.29
2023-03-04T16:23:43.519Z,98649.29
2023-03-04T16:24:54.260Z,98632.41
2023-03-04T16:26:04.143Z,98636.99
2023-03-04T16:27:15.044Z,98639.91
2023-03-04T16:28:23.720Z,98635.45
2023-03-04T16:30:49.569Z,98642.27
2023-03-04T16:31:58.343Z,98639.14
2023-03-04T16:33:07.901Z,98654.91
2023-03-04T16:35:35.314Z,98642.10
2023-03-04T16:36:44.148Z,98646.00
2023-03-04T16:37:54.502Z,98648.08
2023-03-04T16:39:07.352Z,98639.48
2023-03-04T16:41:36.663Z,98629.83
2023-03-04T16:42:45.515Z,98638.61
2023-03-04T16:43:56.648Z,98644.08
2023-03-04T16:45:09.897Z,98647.41
2023-03-04T16:46:19.649Z,98635.08
2023-03-04T16:47:28.725Z,98632.22
2023-03-04T16:48:37.737Z,98633.94
2023-03-04T16:51:15.356Z,98621.70
2023-03-04T16:52:32.639Z,98625.91
2023-03-04T16:55:09.740Z,98609.66
2023-03-04T16:56:19.591Z,98634.61
2023-03-04T16:57:28.408Z,98616.73
2023-03-04T16:58:36.825Z,98612.16
2023-03-04T16:59:45.556Z,98604.41
2023-03-04T17:00:54.680Z,98620.59
2023-03-04T17:02:03.156Z,98605.04
2023-03-04T17:03:12.040Z,98607.52
2023-03-04T17:04:22.193Z,98602.98
2023-03-04T17:05:33.378Z,98614.14
2023-03-04T17:06:42.385Z,98619.08
2023-03-04T17:07:51.499Z,98614.81
2023-03-04T17:09:01.039Z,98617.27
2023-03-04T17:10:11.970Z,98613.10
2023-03-04T17:11:22.685Z,98616.80
2023-03-04T17:12:31.251Z,98605.81
2023-03-04T17:13:39.875Z,98606.28
2023-03-04T17:14:49.826Z,98611.12
2023-03-04T17:16:03.195Z,98613.00
2023-03-04T17:17:12.654Z,98618.61
2023-03-04T17:18:21.264Z,98614.04
2023-03-04T17:20:45.618Z,98609.77
2023-03-04T17:21:57.442Z,98600.36
2023-03-04T17:23:06.270Z,98608.63
2023-03-04T17:24:14.891Z,98601.61
2023-03-04T17:25:23.531Z,98606.28
2023-03-04T17:26:32.858Z,98593.95
2023-03-04T17:27:42.298Z,98592.80
2023-03-04T17:28:52.361Z,98594.89